Time;durP1;ratioP1;P1;durP2;ratioP2;P2;SDS_P1;SDS_P2;PMS_P1;PMS_P2;Temp;Humidity;BMP_temperature;BMP_pressure;BME280_temperature;BME280_humidity;BME280_pressure;Samples;Min_cycle;Max_cycle;Signal;HPM_P1;HPM_P2
2023/11/04 00:00:34;;;;;;;17.35;2.15;;;8.20;99.90;;;;;;4997009;28;20049;-70
2023/11/04 00:03:21;;;;;;;8.57;1.90;;;8.10;99.90;;;;;;4994749;28;20054;-69
2023/11/04 00:05:48;;;;;;;10.68;1.80;;;8.10;99.90;;;;;;4990141;28;20038;-70
2023/11/04 00:08:15;;;;;;;7.72;2.05;;;8.20;99.90;;;;;;4999226;28;20050;-69
2023/11/04 00:10:42;;;;;;;11.55;2.10;;;8.20;99.90;;;;;;4972820;28;20046;-68
2023/11/04 00:13:09;;;;;;;6.90;1.50;;;8.10;99.90;;;;;;4992937;28;20050;-69
2023/11/04 00:15:36;;;;;;;8.25;2.53;;;8.10;99.90;;;;;;4996903;28;20054;-69
2023/11/04 00:18:03;;;;;;;8.13;1.77;;;8.10;99.90;;;;;;4988610;28;20540;-68
2023/11/04 00:20:29;;;;;;;9.43;2.22;;;8.00;99.90;;;;;;4991510;28;20042;-69
2023/11/04 00:23:11;;;;;;;9.75;2.20;;;8.00;99.90;;;;;;4992799;28;20130;-69
2023/11/04 00:25:38;;;;;;;11.32;2.38;;;8.00;99.90;;;;;;4991111;28;20158;-69
2023/11/04 00:28:05;;;;;;;9.75;2.22;;;8.00;99.90;;;;;;4995503;28;20051;-69
2023/11/04 00:30:32;;;;;;;7.13;1.90;;;7.90;99.90;;;;;;4987677;28;20049;-69
2023/11/04 00:32:59;;;;;;;15.48;2.40;;;7.90;99.90;;;;;;4999302;28;20058;-69
2023/11/04 00:35:26;;;;;;;5.20;2.13;;;7.90;99.90;;;;;;4996997;28;20043;-69
2023/11/04 00:37:52;;;;;;;9.82;3.20;;;7.80;99.90;;;;;;4998930;28;20041;-69
2023/11/04 00:40:19;;;;;;;7.85;2.55;;;7.80;99.90;;;;;;4997929;28;20357;-68
2023/11/04 00:42:46;;;;;;;16.35;2.85;;;7.70;99.90;;;;;;4989959;28;20782;-69
2023/11/04 00:45:13;;;;;;;7.68;2.20;;;7.60;99.90;;;;;;4982711;28;20074;-68
2023/11/04 00:47:40;;;;;;;10.63;2.35;;;7.60;99.90;;;;;;4990603;28;20054;-68
2023/11/04 00:50:07;;;;;;;5.50;2.47;;;7.60;99.90;;;;;;4992799;28;20050;-71
2023/11/04 00:52:46;;;;;;;9.20;2.42;;;7.60;99.90;;;;;;4989407;28;20062;-69
2023/11/04 00:55:13;;;;;;;9.07;2.50;;;7.60;99.90;;;;;;4997702;28;20046;-67
2023/11/04 00:57:40;;;;;;;12.00;3.72;;;7.60;99.90;;;;;;5000558;28;20045;-70
2023/11/04 01:00:07;;;;;;;6.90;2.25;;;7.60;99.90;;;;;;5000157;28;20387;-70
2023/11/04 01:02:34;;;;;;;7.90;2.75;;;7.60;99.90;;;;;;4991842;28;20101;-68
2023/11/04 01:05:01;;;;;;;8.98;2.55;;;7.60;99.90;;;;;;4998838;28;20042;-70
2023/11/04 01:07:28;;;;;;;15.05;4.32;;;7.60;99.90;;;;;;5006161;28;20494;-69
2023/11/04 01:09:56;;;;;;;8.32;2.80;;;7.60;99.90;;;;;;4993097;28;20042;-69
2023/11/04 01:12:23;;;;;;;11.30;2.97;;;7.60;99.90;;;;;;4992144;28;20474;-70
2023/11/04 01:14:50;;;;;;;10.88;3.05;;;7.60;99.90;;;;;;4997338;28;20046;-70
2023/11/04 01:17:17;;;;;;;12.82;2.70;;;7.50;99.90;;;;;;4981844;28;20555;-69
2023/11/04 01:19:44;;;;;;;13.07;2.70;;;7.50;99.90;;;;;;4993115;28;20056;-69
2023/11/04 01:22:11;;;;;;;10.10;2.80;;;7.50;99.90;;;;;;4989366;28;20086;-69
2023/11/04 01:24:42;;;;;;;10.00;3.22;;;7.40;99.90;;;;;;4995018;28;20046;-69
2023/11/04 01:27:09;;;;;;;8.82;3.40;;;7.50;99.90;;;;;;4989043;28;20097;-69
2023/11/04 01:29:36;;;;;;;17.52;3.10;;;7.50;99.90;;;;;;4994333;28;20123;-70
2023/11/04 01:32:05;;;;;;;8.70;2.80;;;7.50;99.90;;;;;;4999016;28;20100;-69
2023/11/04 01:34:32;;;;;;;10.80;2.55;;;7.60;99.90;;;;;;4990240;28;20049;-69
2023/11/04 01:36:59;;;;;;;7.68;1.90;;;7.60;99.90;;;;;;4999897;28;20463;-69
2023/11/04 01:39:26;;;;;;;10.65;2.10;;;7.50;99.90;;;;;;4991583;28;20058;-70
2023/11/04 01:41:53;;;;;;;9.00;2.30;;;7.60;99.90;;;;;;4982437;28;20051;-69
2023/11/04 01:44:20;;;;;;;6.60;2.58;;;7.50;99.90;;;;;;4992708;28;20104;-70
2023/11/04 01:46:47;;;;;;;7.80;2.30;;;7.50;99.90;;;;;;4983220;28;20042;-70
2023/11/04 01:49:14;;;;;;;14.15;2.60;;;7.50;99.90;;;;;;5000001;28;20524;-69
2023/11/04 01:51:41;;;;;;;8.93;2.78;;;7.50;99.90;;;;;;4992403;28;20050;-71
2023/11/04 01:54:09;;;;;;;8.65;2.13;;;7.50;99.90;;;;;;5003575;28;20494;-69
2023/11/04 01:56:38;;;;;;;8.68;2.35;;;7.50;99.90;;;;;;4992213;28;20493;-69
2023/11/04 01:59:05;;;;;;;6.55;2.17;;;7.70;99.90;;;;;;5003556;28;20057;-69
2023/11/04 02:01:34;;;;;;;6.05;3.53;;;7.50;99.90;;;;;;4995088;28;20564;-69
2023/11/04 02:04:02;;;;;;;10.02;2.47;;;7.50;99.90;;;;;;4986319;28;20050;-69
2023/11/04 02:06:29;;;;;;;3.85;1.95;;;7.40;99.90;;;;;;4993606;28;20039;-69
2023/11/04 02:08:56;;;;;;;15.18;2.55;;;7.40;99.90;;;;;;5002832;28;20049;-69
2023/11/04 02:11:22;;;;;;;11.18;3.55;;;7.30;99.90;;;;;;5000437;28;20038;-69
2023/11/04 02:13:49;;;;;;;8.55;2.45;;;7.30;99.90;;;;;;4994717;28;20149;-69
2023/11/04 02:16:16;;;;;;;16.05;4.10;;;7.20;99.90;;;;;;4986998;28;20046;-68
2023/11/04 02:18:43;;;;;;;7.80;2.08;;;7.20;99.90;;;;;;4632136;28;10000235;-69
2023/11/04 02:21:10;;;;;;;8.05;2.42;;;7.20;99.90;;;;;;4988486;28;20048;-69
2023/11/04 02:23:37;;;;;;;8.70;2.10;;;7.60;99.90;;;;;;5000850;28;20066;-69
2023/11/04 02:26:04;;;;;;;7.90;1.98;;;7.10;99.90;;;;;;4991524;28;20429;-69
2023/11/04 02:28:31;;;;;;;5.80;1.60;;;7.10;99.90;;;;;;4999112;28;20572;-70
2023/11/04 02:30:58;;;;;;;7.05;1.95;;;7.10;99.90;;;;;;4992634;28;20058;-69
2023/11/04 02:33:25;;;;;;;5.13;2.00;;;7.10;99.90;;;;;;4991677;28;20147;-69
2023/11/04 02:35:52;;;;;;;6.22;1.52;;;7.10;99.90;;;;;;5003291;28;20093;-69
2023/11/04 02:38:18;;;;;;;8.77;2.15;;;7.10;99.90;;;;;;4992828;28;20050;-69
2023/11/04 02:40:46;;;;;;;8.20;2.22;;;7.10;99.90;;;;;;5000737;28;20057;-69
2023/11/04 02:43:12;;;;;;;8.27;1.67;;;7.00;99.90;;;;;;4984954;28;20047;-69
2023/11/04 02:45:39;;;;;;;10.10;2.00;;;7.00;99.90;;;;;;4976530;28;20485;-69
2023/11/04 02:48:06;;;;;;;9.00;2.55;;;6.90;99.90;;;;;;4991260;28;20050;-70
2023/11/04 02:50:33;;;;;;;13.75;3.60;;;6.90;99.90;;;;;;5003087;28;20104;-69
2023/11/04 02:53:00;;;;;;;3.33;1.38;;;6.90;99.90;;;;;;4996073;28;20046;-70
2023/11/04 02:55:27;;;;;;;12.57;1.70;;;6.80;99.90;;;;;;4993210;28;20062;-70
2023/11/04 02:57:53;;;;;;;7.82;1.73;;;6.80;99.90;;;;;;5004669;28;20389;-70
2023/11/04 03:00:20;;;;;;;7.72;1.65;;;6.80;99.90;;;;;;4999700;28;20524;-70
2023/11/04 03:02:47;;;;;;;6.93;1.58;;;6.80;99.90;;;;;;4989953;28;20074;-68
2023/11/04 03:05:15;;;;;;;11.15;1.77;;;6.80;99.90;;;;;;4996529;28;20492;-69
2023/11/04 03:07:58;;;;;;;6.15;1.55;;;6.70;99.90;;;;;;5001308;28;20082;-69
2023/11/04 03:10:25;;;;;;;6.65;2.35;;;6.70;99.90;;;;;;5007792;28;20592;-69
2023/11/04 03:12:52;;;;;;;7.18;3.30;;;6.70;99.90;;;;;;5002486;28;20061;-69
2023/11/04 03:15:20;;;;;;;6.70;1.23;;;6.60;99.90;;;;;;5003905;28;20416;-69
2023/11/04 03:17:47;;;;;;;5.57;1.40;;;6.60;99.90;;;;;;5003540;28;20045;-69
2023/11/04 03:20:15;;;;;;;3.47;1.55;;;6.60;99.90;;;;;;5000030;28;20049;-69
2023/11/04 03:22:42;;;;;;;5.25;1.25;;;6.60;99.90;;;;;;5005869;28;20068;-69
2023/11/04 03:25:09;;;;;;;9.40;1.70;;;6.50;99.90;;;;;;4996098;28;20049;-69
2023/11/04 03:27:36;;;;;;;5.70;1.92;;;6.50;99.90;;;;;;5006599;28;20156;-69
2023/11/04 03:30:04;;;;;;;9.35;3.15;;;6.30;99.90;;;;;;4984780;28;20057;-68
2023/11/04 03:32:31;;;;;;;8.88;1.98;;;6.40;99.90;;;;;;5003952;28;20532;-69
2023/11/04 03:34:57;;;;;;;6.80;1.50;;;6.30;99.90;;;;;;4994601;28;20181;-68
2023/11/04 03:37:24;;;;;;;4.15;1.50;;;6.40;99.90;;;;;;5001142;28;20046;-69
2023/11/04 03:39:52;;;;;;;6.28;1.52;;;6.30;99.90;;;;;;4991063;28;20501;-69
2023/11/04 03:42:19;;;;;;;8.00;1.80;;;6.40;99.90;;;;;;4995152;28;20041;-69
2023/11/04 03:44:46;;;;;;;5.90;1.48;;;6.40;99.90;;;;;;4994499;28;20134;-70
2023/11/04 03:47:13;;;;;;;12.95;2.78;;;6.40;99.90;;;;;;4979645;28;20556;-69
2023/11/04 03:49:40;;;;;;;10.35;2.15;;;6.30;99.90;;;;;;4989505;28;20133;-68
2023/11/04 03:52:07;;;;;;;9.00;1.42;;;6.30;99.90;;;;;;4990507;28;20053;-68
2023/11/04 03:54:34;;;;;;;5.03;1.90;;;6.30;99.90;;;;;;4988506;28;20056;-68
2023/11/04 03:57:02;;;;;;;13.00;2.50;;;6.30;99.90;;;;;;4990871;28;20133;-68
2023/11/04 03:59:28;;;;;;;14.27;2.10;;;6.30;99.90;;;;;;4989668;28;20050;-68
2023/11/04 04:01:55;;;;;;;9.43;1.90;;;6.40;99.90;;;;;;4994238;28;20097;-68
2023/11/04 04:04:22;;;;;;;8.43;2.35;;;6.50;99.90;;;;;;4990483;28;20054;-72
2023/11/04 04:06:50;;;;;;;13.65;2.00;;;6.50;99.90;;;;;;4992221;28;20421;-71
2023/11/04 04:09:17;;;;;;;9.45;2.13;;;6.60;99.90;;;;;;4999195;28;20129;-69
2023/11/04 04:11:44;;;;;;;10.52;2.33;;;6.60;99.90;;;;;;4984977;28;20409;-69
2023/11/04 04:14:11;;;;;;;12.23;2.80;;;6.70;99.90;;;;;;5005022;28;20468;-68
2023/11/04 04:16:38;;;;;;;7.32;2.30;;;6.80;99.90;;;;;;4994547;28;20281;-68
2023/11/04 04:19:05;;;;;;;7.70;1.63;;;6.90;99.90;;;;;;4982495;28;20457;-67
2023/11/04 04:21:32;;;;;;;8.15;1.83;;;6.90;99.90;;;;;;4998323;28;20104;-68
2023/11/04 04:23:59;;;;;;;8.13;1.65;;;7.00;99.90;;;;;;4990775;28;20434;-68
2023/11/04 04:26:25;;;;;;;9.93;2.95;;;7.10;99.90;;;;;;4998380;28;20046;-67
2023/11/04 04:28:52;;;;;;;10.10;2.20;;;7.10;99.90;;;;;;4994036;28;20050;-70
2023/11/04 04:31:19;;;;;;;7.28;1.83;;;7.10;99.90;;;;;;4993755;28;20226;-69
2023/11/04 04:33:46;;;;;;;6.82;2.17;;;7.00;99.90;;;;;;4990776;28;20077;-68
2023/11/04 04:36:13;;;;;;;9.15;2.08;;;7.00;99.90;;;;;;4990315;28;20215;-69
2023/11/04 04:38:39;;;;;;;6.03;1.60;;;6.90;99.90;;;;;;4990589;28;20521;-68
2023/11/04 04:41:08;;;;;;;6.93;1.50;;;7.00;99.90;;;;;;4994606;28;20051;-69
2023/11/04 04:43:36;;;;;;;8.15;2.03;;;6.90;99.90;;;;;;4996800;28;20556;-69
2023/11/04 04:46:04;;;;;;;8.20;1.85;;;6.90;99.90;;;;;;4995788;28;20046;-68
2023/11/04 04:48:31;;;;;;;8.30;1.77;;;6.90;99.90;;;;;;4996791;28;20046;-70
2023/11/04 04:50:58;;;;;;;6.68;1.63;;;6.90;99.90;;;;;;4999889;28;20556;-67
2023/11/04 04:53:25;;;;;;;4.78;2.35;;;6.80;99.90;;;;;;4991728;28;20046;-67
2023/11/04 04:55:53;;;;;;;8.10;2.08;;;6.80;99.90;;;;;;4991165;28;20468;-68
2023/11/04 04:58:22;;;;;;;5.97;1.70;;;6.80;99.90;;;;;;4997861;28;20092;-68
2023/11/04 05:00:49;;;;;;;7.80;1.80;;;6.90;99.90;;;;;;4989551;28;20254;-68
2023/11/04 05:03:15;;;;;;;6.13;1.73;;;6.90;99.90;;;;;;4998739;28;20058;-67
2023/11/04 05:05:43;;;;;;;12.30;1.77;;;7.00;99.90;;;;;;4995803;28;20448;-68
2023/11/04 05:08:09;;;;;;;14.70;2.40;;;7.00;99.90;;;;;;4996506;28;20050;-68
2023/11/04 05:10:36;;;;;;;6.22;1.40;;;7.00;99.90;;;;;;4994830;28;20046;-67
2023/11/04 05:13:07;;;;;;;13.10;1.88;;;7.10;99.90;;;;;;4990850;28;20491;-67
2023/11/04 05:15:34;;;;;;;13.57;2.42;;;7.20;99.90;;;;;;5006894;28;20046;-68
2023/11/04 05:18:01;;;;;;;7.13;2.08;;;7.30;99.90;;;;;;4987208;28;20042;-68
2023/11/04 05:20:27;;;;;;;7.50;1.75;;;7.20;99.90;;;;;;4978271;28;20064;-67
2023/11/04 05:22:54;;;;;;;5.80;1.70;;;7.30;99.90;;;;;;4993117;28;20046;-68
2023/11/04 05:25:22;;;;;;;8.02;2.17;;;7.30;99.90;;;;;;4988663;28;20494;-68
2023/11/04 05:27:49;;;;;;;12.20;1.80;;;7.40;99.90;;;;;;4992560;28;20039;-67
2023/11/04 05:30:15;;;;;;;12.70;1.88;;;7.40;99.90;;;;;;4988123;28;20062;-68
2023/11/04 05:32:42;;;;;;;3.50;1.52;;;7.40;99.90;;;;;;4994132;28;20064;-68
2023/11/04 05:35:09;;;;;;;6.55;1.40;;;7.50;99.90;;;;;;4992532;28;20137;-68
2023/11/04 05:37:36;;;;;;;9.93;2.70;;;7.50;99.90;;;;;;4991871;28;20037;-68
2023/11/04 05:40:04;;;;;;;5.32;1.10;;;7.50;99.90;;;;;;5000154;28;20053;-68
2023/11/04 05:42:30;;;;;;;6.93;1.73;;;7.50;99.90;;;;;;4989346;28;20087;-67
2023/11/04 05:44:57;;;;;;;13.45;2.35;;;7.60;99.90;;;;;;4986351;28;20105;-68
2023/11/04 05:47:24;;;;;;;8.48;1.67;;;7.60;99.90;;;;;;4982350;28;20246;-68
2023/11/04 05:49:51;;;;;;;9.45;2.47;;;7.70;99.90;;;;;;4998598;28;20077;-68
2023/11/04 05:52:18;;;;;;;8.57;1.92;;;7.70;99.90;;;;;;4989604;28;20066;-67
2023/11/04 05:54:45;;;;;;;9.70;1.77;;;7.70;99.90;;;;;;4993447;28;20454;-68
2023/11/04 05:57:12;;;;;;;6.30;1.75;;;7.80;99.90;;;;;;5005040;28;20084;-68
2023/11/04 05:59:38;;;;;;;5.18;1.58;;;7.80;99.90;;;;;;4993174;28;20109;-69
2023/11/04 06:02:05;;;;;;;5.97;1.63;;;7.90;99.90;;;;;;4989917;28;20046;-67
2023/11/04 06:04:32;;;;;;;5.63;1.63;;;7.90;99.90;;;;;;4996490;28;20096;-68
2023/11/04 06:06:59;;;;;;;11.85;1.77;;;7.90;99.90;;;;;;4993064;28;20449;-68
2023/11/04 06:09:26;;;;;;;2.72;1.27;;;7.90;99.90;;;;;;4992119;28;20442;-66
2023/11/04 06:11:52;;;;;;;3.85;1.58;;;7.90;99.90;;;;;;4988063;28;20045;-68
2023/11/04 06:14:19;;;;;;;3.22;1.35;;;7.90;99.90;;;;;;4988394;28;20050;-67
2023/11/04 06:16:46;;;;;;;4.55;1.20;;;7.90;99.90;;;;;;4988795;28;20100;-69
2023/11/04 06:19:13;;;;;;;7.35;1.85;;;7.90;99.90;;;;;;4997400;28;20042;-68
2023/11/04 06:21:40;;;;;;;10.57;2.13;;;8.00;99.90;;;;;;4999537;28;20100;-69
2023/11/04 06:24:07;;;;;;;3.08;1.60;;;7.90;99.90;;;;;;4992490;28;20141;-68
2023/11/04 06:26:34;;;;;;;5.70;1.85;;;7.90;99.90;;;;;;4989791;28;20050;-68
2023/11/04 06:29:00;;;;;;;7.65;2.38;;;7.90;99.90;;;;;;4991472;28;20043;-68
2023/11/04 06:31:28;;;;;;;10.57;2.20;;;8.00;99.90;;;;;;4991829;28;20101;-68
2023/11/04 06:33:55;;;;;;;10.70;2.15;;;8.00;99.90;;;;;;4988596;28;20046;-68
2023/11/04 06:36:22;;;;;;;7.63;1.67;;;8.00;99.90;;;;;;4993931;28;20119;-68
2023/11/04 06:38:48;;;;;;;7.72;1.73;;;8.00;99.90;;;;;;4996838;28;20046;-68
2023/11/04 06:41:19;;;;;;;5.80;1.63;;;8.10;99.90;;;;;;5006541;28;20081;-68
2023/11/04 06:43:47;;;;;;;10.13;1.67;;;8.10;99.90;;;;;;4995810;28;20477;-68
2023/11/04 06:46:14;;;;;;;14.88;2.08;;;8.20;99.90;;;;;;5003544;28;20054;-68
2023/11/04 06:48:42;;;;;;;10.43;2.08;;;8.20;99.90;;;;;;4995978;28;20092;-68
2023/11/04 06:51:09;;;;;;;7.60;1.98;;;8.20;99.90;;;;;;4990267;28;20198;-68
2023/11/04 06:53:36;;;;;;;12.10;2.10;;;8.30;99.90;;;;;;4989929;28;20092;-68
2023/11/04 06:56:03;;;;;;;14.52;1.80;;;8.30;99.90;;;;;;4997995;28;20109;-69
2023/11/04 06:58:30;;;;;;;14.15;2.38;;;8.40;99.90;;;;;;5006560;28;20057;-69
2023/11/04 07:00:57;;;;;;;17.08;3.33;;;8.40;99.90;;;;;;4999793;28;20343;-69
2023/11/04 07:03:24;;;;;;;6.70;2.13;;;8.40;99.90;;;;;;5002930;28;20050;-69
2023/11/04 07:05:51;;;;;;;18.92;5.70;;;8.40;99.90;;;;;;4999763;28;20042;-70
2023/11/04 07:08:18;;;;;;;11.95;2.78;;;8.50;99.90;;;;;;5002693;28;20050;-70
2023/11/04 07:10:45;;;;;;;10.05;1.73;;;8.40;99.90;;;;;;5003385;28;20125;-70
2023/11/04 07:13:12;;;;;;;8.85;1.70;;;8.40;99.90;;;;;;4999648;28;20053;-71
2023/11/04 07:15:43;;;;;;;10.30;1.85;;;8.40;99.90;;;;;;5003751;28;20855;-71
2023/11/04 07:18:12;;;;;;;11.70;1.77;;;8.40;99.90;;;;;;4997613;28;20038;-73
2023/11/04 07:20:40;;;;;;;10.93;1.52;;;8.40;99.90;;;;;;5001499;28;20058;-72
2023/11/04 07:23:14;;;;;;;9.70;1.38;;;8.40;99.90;;;;;;5001902;28;20125;-72
2023/11/04 07:25:40;;;;;;;7.13;1.23;;;8.30;99.90;;;;;;4996308;28;20438;-72
2023/11/04 07:28:07;;;;;;;6.63;1.73;;;8.30;99.90;;;;;;4996195;28;20073;-72
2023/11/04 07:30:35;;;;;;;7.35;1.27;;;8.30;99.90;;;;;;5006649;28;20111;-72
2023/11/04 07:33:02;;;;;;;4.70;0.98;;;8.30;99.90;;;;;;4994795;28;20137;-72
2023/11/04 07:35:29;;;;;;;6.35;1.33;;;8.30;99.90;;;;;;4995678;28;20258;-72
2023/11/04 07:37:56;;;;;;;6.43;1.23;;;8.30;99.90;;;;;;4995023;28;20383;-72
2023/11/04 07:40:26;;;;;;;8.52;0.98;;;8.30;99.90;;;;;;5005929;28;20050;-70
2023/11/04 07:42:53;;;;;;;6.90;1.33;;;8.30;99.90;;;;;;4994425;28;20042;-72
2023/11/04 07:45:20;;;;;;;7.95;1.02;;;8.30;99.90;;;;;;5005683;28;20054;-70
2023/11/04 07:47:46;;;;;;;6.45;1.17;;;8.30;99.90;;;;;;4997969;28;20692;-71
2023/11/04 07:50:13;;;;;;;3.50;0.90;;;8.30;99.90;;;;;;4989986;28;20051;-71
2023/11/04 07:52:43;;;;;;;2.83;0.70;;;8.20;99.90;;;;;;5002211;28;20096;-71
2023/11/04 07:55:24;;;;;;;3.90;0.70;;;8.10;99.90;;;;;;5004180;28;20046;-70
2023/11/04 07:57:52;;;;;;;4.65;0.60;;;8.10;99.90;;;;;;4998485;28;20068;-72
2023/11/04 08:00:19;;;;;;;6.47;0.80;;;8.10;99.90;;;;;;5002699;28;20439;-71
2023/11/04 08:02:47;;;;;;;3.95;1.27;;;8.10;99.90;;;;;;5003230;28;20038;-71
2023/11/04 08:05:14;;;;;;;4.18;1.10;;;8.10;99.90;;;;;;5002960;28;20200;-69
2023/11/04 08:07:41;;;;;;;3.47;0.90;;;8.10;99.90;;;;;;4999922;28;20044;-70
2023/11/04 08:10:08;;;;;;;6.53;0.80;;;8.10;99.90;;;;;;4996358;28;20078;-69
2023/11/04 08:12:36;;;;;;;4.10;0.77;;;8.10;99.90;;;;;;5002407;28;20533;-69
2023/11/04 08:15:06;;;;;;;5.72;1.05;;;8.10;99.90;;;;;;5002127;28;20053;-70
2023/11/04 08:17:33;;;;;;;5.07;0.77;;;8.10;99.90;;;;;;4996520;28;20042;-70
2023/11/04 08:20:08;;;;;;;4.90;0.98;;;8.20;99.90;;;;;;5001278;28;20098;-70
2023/11/04 08:22:39;;;;;;;5.40;0.98;;;8.20;99.90;;;;;;4989118;28;20043;-70
2023/11/04 08:25:07;;;;;;;4.30;0.55;;;8.20;99.90;;;;;;4987325;28;20529;-71
2023/11/04 08:27:34;;;;;;;2.75;0.80;;;8.20;99.90;;;;;;5001537;28;20449;-69
2023/11/04 08:30:03;;;;;;;3.67;0.93;;;8.20;99.90;;;;;;4993823;28;20680;-70
2023/11/04 08:32:30;;;;;;;2.08;0.60;;;8.20;99.90;;;;;;4981134;28;20089;-70
2023/11/04 08:34:58;;;;;;;7.47;1.13;;;8.20;99.90;;;;;;4994252;28;20054;-69
2023/11/04 08:37:26;;;;;;;5.38;1.05;;;8.20;99.90;;;;;;5001030;28;20547;-70
2023/11/04 08:39:54;;;;;;;2.63;0.80;;;8.20;99.90;;;;;;5000433;28;20050;-68
2023/11/04 08:42:21;;;;;;;5.80;0.93;;;8.20;99.90;;;;;;4989277;28;20141;-70
2023/11/04 08:44:48;;;;;;;5.40;0.88;;;8.30;99.90;;;;;;5001400;28;20108;-71
2023/11/04 08:47:16;;;;;;;1.35;0.57;;;8.30;99.90;;;;;;4996038;28;20050;-70
2023/11/04 08:49:43;;;;;;;5.93;1.25;;;8.30;99.90;;;;;;5001050;28;20567;-73
2023/11/04 08:52:11;;;;;;;10.07;1.65;;;8.40;99.90;;;;;;4997107;28;20057;-70
2023/11/04 08:54:40;;;;;;;2.53;0.77;;;8.40;99.90;;;;;;4997646;28;20074;-70
2023/11/04 08:57:07;;;;;;;9.77;0.98;;;8.50;99.90;;;;;;4997409;28;20042;-70
2023/11/04 08:59:34;;;;;;;3.50;1.20;;;8.60;99.90;;;;;;4994532;28;20111;-70
2023/11/04 09:02:01;;;;;;;3.58;0.88;;;8.60;99.90;;;;;;4997660;28;20574;-70
2023/11/04 09:04:27;;;;;;;1.70;0.70;;;8.60;99.90;;;;;;4993824;28;20057;-70
2023/11/04 09:06:55;;;;;;;6.65;0.80;;;8.60;99.90;;;;;;4994153;28;20058;-70
2023/11/04 09:09:23;;;;;;;1.95;0.95;;;8.60;99.90;;;;;;4988073;28;20524;-67
2023/11/04 09:11:50;;;;;;;3.60;1.25;;;8.60;99.90;;;;;;4990190;28;20050;-68
2023/11/04 09:14:16;;;;;;;3.50;1.05;;;8.70;99.90;;;;;;5005974;28;20496;-67
2023/11/04 09:16:44;;;;;;;1.08;0.40;;;8.70;99.90;;;;;;5000338;28;20049;-67
2023/11/04 09:19:10;;;;;;;7.72;1.00;;;8.80;99.90;;;;;;4992282;28;20046;-67
2023/11/04 09:21:38;;;;;;;2.42;0.80;;;8.70;99.90;;;;;;4994423;28;20046;-67
2023/11/04 09:24:05;;;;;;;4.78;0.65;;;8.70;99.90;;;;;;5004499;28;20049;-67
2023/11/04 09:26:32;;;;;;;3.28;0.65;;;8.60;99.90;;;;;;4990666;28;20057;-67
2023/11/04 09:28:59;;;;;;;3.40;0.80;;;8.60;99.90;;;;;;5004734;28;20096;-65
2023/11/04 09:31:26;;;;;;;4.53;0.82;;;8.60;99.90;;;;;;4999020;28;20082;-66
2023/11/04 09:33:54;;;;;;;7.82;1.33;;;8.60;99.90;;;;;;4643761;28;9999983;-66
2023/11/04 09:36:21;;;;;;;9.52;0.90;;;8.70;99.90;;;;;;4992625;28;20734;-66
2023/11/04 09:38:48;;;;;;;3.45;0.50;;;8.70;99.90;;;;;;4992874;28;20065;-66
2023/11/04 09:41:15;;;;;;;4.18;0.73;;;8.80;99.90;;;;;;4993484;28;20598;-65
2023/11/04 09:43:42;;;;;;;4.57;0.90;;;8.90;99.90;;;;;;4975829;28;20050;-66
2023/11/04 09:46:09;;;;;;;3.20;0.50;;;9.00;99.90;;;;;;4995522;28;20495;-66
2023/11/04 09:48:37;;;;;;;4.10;0.63;;;9.10;99.90;;;;;;4992382;28;20428;-66
2023/11/04 09:51:09;;;;;;;1.77;0.50;;;9.10;99.90;;;;;;4999726;28;20058;-67
2023/11/04 09:53:38;;;;;;;5.68;0.68;;;9.20;99.90;;;;;;4981800;28;20506;-66
2023/11/04 09:56:06;;;;;;;3.00;0.47;;;9.20;99.90;;;;;;4982698;28;20050;-66
2023/11/04 09:58:34;;;;;;;0.65;0.57;;;9.20;99.90;;;;;;4997154;28;20046;-66
2023/11/04 10:01:01;;;;;;;1.90;0.68;;;9.20;99.90;;;;;;4981416;28;20051;-66
2023/11/04 10:03:29;;;;;;;6.65;0.57;;;9.20;99.90;;;;;;4980468;28;20049;-66
2023/11/04 10:05:56;;;;;;;0.80;0.30;;;9.20;99.90;;;;;;4984123;28;20662;-66
2023/11/04 10:08:24;;;;;;;2.05;0.20;;;9.20;99.90;;;;;;4992687;28;20516;-67
2023/11/04 10:10:51;;;;;;;0.40;0.30;;;9.20;99.90;;;;;;4997672;28;20058;-67
2023/11/04 10:13:18;;;;;;;0.20;0.20;;;9.20;99.90;;;;;;4990390;28;20129;-66
2023/11/04 10:15:45;;;;;;;1.58;0.40;;;9.30;99.90;;;;;;4988652;28;20126;-67
2023/11/04 10:18:14;;;;;;;0.65;0.35;;;9.30;99.90;;;;;;4989179;28;20050;-67
2023/11/04 10:20:41;;;;;;;3.63;0.52;;;9.30;99.90;;;;;;4996366;28;20116;-67
2023/11/04 10:23:09;;;;;;;1.08;0.22;;;9.30;99.90;;;;;;4987876;28;20047;-66
2023/11/04 10:25:35;;;;;;;0.35;0.35;;;9.30;99.90;;;;;;4985146;28;20477;-67
2023/11/04 10:28:03;;;;;;;2.65;1.05;;;9.30;99.90;;;;;;4992686;28;20046;-67
2023/11/04 10:30:30;;;;;;;0.55;0.40;;;9.30;99.90;;;;;;4972402;28;20065;-69
2023/11/04 10:32:57;;;;;;;5.25;0.50;;;9.40;99.90;;;;;;4987800;28;20425;-67
2023/11/04 10:35:23;;;;;;;1.48;0.50;;;9.50;99.90;;;;;;4991965;28;20062;-68
2023/11/04 10:37:51;;;;;;;2.40;0.45;;;9.60;99.90;;;;;;4974803;28;20129;-68
2023/11/04 10:40:20;;;;;;;2.90;0.90;;;9.70;99.90;;;;;;4982593;28;20062;-68
2023/11/04 10:42:53;;;;;;;1.17;0.52;;;9.80;99.90;;;;;;4992376;28;20047;-68
2023/11/04 10:45:26;;;;;;;0.32;0.30;;;9.90;99.90;;;;;;4990955;28;20448;-68
2023/11/04 10:47:58;;;;;;;5.03;0.63;;;10.00;99.90;;;;;;4989455;28;20457;-69
2023/11/04 10:50:33;;;;;;;4.60;0.73;;;10.20;99.90;;;;;;4987731;28;20189;-68
2023/11/04 10:53:27;;;;;;;7.00;0.80;;;10.20;99.90;;;;;;4987072;28;20038;-68
2023/11/04 10:56:24;;;;;;;3.72;1.02;;;10.50;99.90;;;;;;4993080;28;20140;-69
2023/11/04 10:59:14;;;;;;;6.78;0.88;;;10.60;99.90;;;;;;4994808;28;20559;-68
2023/11/04 11:01:41;;;;;;;12.25;1.73;;;10.80;99.90;;;;;;5001757;28;20559;-68
2023/11/04 11:04:09;;;;;;;9.23;2.35;;;10.90;99.90;;;;;;4985507;28;20053;-67
2023/11/04 11:06:36;;;;;;;12.20;2.70;;;11.10;99.90;;;;;;4982809;28;20149;-67
2023/11/04 11:09:05;;;;;;;15.00;2.10;;;11.20;99.90;;;;;;4985731;28;20104;-68
2023/11/04 11:11:54;;;;;;;10.68;1.90;;;11.30;99.90;;;;;;4992619;28;20053;-68
2023/11/04 11:14:21;;;;;;;8.85;1.73;;;11.40;99.90;;;;;;4988882;28;20038;-67
2023/11/04 11:16:58;;;;;;;9.77;1.85;;;11.40;99.90;;;;;;4997156;28;20054;-69
2023/11/04 11:19:25;;;;;;;13.20;1.90;;;11.50;99.90;;;;;;4991236;28;20053;-68
2023/11/04 11:21:52;;;;;;;14.45;2.45;;;11.60;99.90;;;;;;4995701;28;20058;-67
2023/11/04 11:24:20;;;;;;;16.25;2.17;;;11.50;99.90;;;;;;4998076;28;20042;-68
2023/11/04 11:26:50;;;;;;;13.02;2.15;;;11.60;99.90;;;;;;4988347;28;20290;-68
2023/11/04 11:29:18;;;;;;;18.05;4.60;;;11.70;99.90;;;;;;4994192;28;20414;-67
2023/11/04 11:31:46;;;;;;;10.45;2.25;;;11.80;99.90;;;;;;4987002;28;20457;-70
2023/11/04 11:34:12;;;;;;;13.57;3.35;;;11.80;99.90;;;;;;5010459;28;20057;-66
2023/11/04 11:36:43;;;;;;;9.85;2.75;;;11.80;99.90;;;;;;5000540;28;20046;-68
2023/11/04 11:39:10;;;;;;;15.05;3.28;;;11.70;99.90;;;;;;4988287;28;20060;-68
2023/11/04 11:41:38;;;;;;;19.13;3.03;;;11.70;99.90;;;;;;5002688;28;20497;-67
2023/11/04 11:44:08;;;;;;;17.35;3.70;;;11.70;99.90;;;;;;5000398;28;20425;-68
2023/11/04 11:46:35;;;;;;;23.38;3.15;;;11.70;99.90;;;;;;5000550;28;20654;-68
2023/11/04 11:49:04;;;;;;;16.38;3.70;;;11.80;99.90;;;;;;4999660;28;20402;-68
2023/11/04 11:51:31;;;;;;;18.40;4.05;;;11.80;99.90;;;;;;4993846;28;20064;-67
2023/11/04 11:54:00;;;;;;;20.85;3.42;;;11.80;99.90;;;;;;4985646;28;20514;-67
2023/11/04 11:56:30;;;;;;;25.77;3.60;;;11.70;99.90;;;;;;4994254;28;20082;-68
2023/11/04 11:59:05;;;;;;;21.80;3.92;;;11.70;99.90;;;;;;5002805;28;20057;-67
2023/11/04 12:01:33;;;;;;;17.50;3.08;;;11.60;99.90;;;;;;4990384;28;20133;-67
2023/11/04 12:04:01;;;;;;;12.73;3.38;;;11.60;99.90;;;;;;4993721;28;20460;-67
2023/11/04 12:06:31;;;;;;;15.32;2.78;;;11.60;99.90;;;;;;4989605;28;20050;-67
2023/11/04 12:08:59;;;;;;;16.95;3.88;;;11.70;99.90;;;;;;4996790;28;20426;-66
2023/11/04 12:11:26;;;;;;;20.75;4.88;;;11.80;99.90;;;;;;4992737;28;20056;-67
2023/11/04 12:13:53;;;;;;;14.43;2.58;;;11.90;99.90;;;;;;4996999;28;20061;-68
2023/11/04 12:16:23;;;;;;;26.60;5.50;;;11.90;99.90;;;;;;4991089;28;20054;-67
2023/11/04 12:18:50;;;;;;;13.63;2.92;;;12.00;99.90;;;;;;4990296;28;20108;-67
2023/11/04 12:21:17;;;;;;;17.40;3.60;;;12.00;99.90;;;;;;4994340;28;20050;-68
2023/11/04 12:23:45;;;;;;;15.43;3.22;;;12.00;99.90;;;;;;5002254;28;20057;-67
2023/11/04 12:26:12;;;;;;;16.20;2.35;;;12.10;99.90;;;;;;5001105;28;20045;-67
2023/11/04 12:28:40;;;;;;;27.10;4.63;;;12.10;99.90;;;;;;4987290;28;20524;-67
2023/11/04 12:31:07;;;;;;;18.98;3.30;;;12.10;99.90;;;;;;4998517;28;20509;-66
2023/11/04 12:33:34;;;;;;;20.67;2.92;;;12.10;99.90;;;;;;4988510;28;20045;-66
2023/11/04 12:36:07;;;;;;;18.85;2.63;;;12.10;99.90;;;;;;4987635;28;20046;-67
2023/11/04 12:38:39;;;;;;;14.90;2.80;;;12.10;99.90;;;;;;4989400;28;20049;-67
2023/11/04 12:41:11;;;;;;;14.88;2.97;;;12.00;99.90;;;;;;4995802;28;20050;-67
2023/11/04 12:43:39;;;;;;;16.25;3.50;;;12.10;99.90;;;;;;4996228;28;20046;-67
2023/11/04 12:46:09;;;;;;;15.80;2.70;;;12.10;99.90;;;;;;4993922;28;20064;-67
2023/11/04 12:48:36;;;;;;;17.73;3.95;;;12.30;99.90;;;;;;4985202;28;20144;-66
2023/11/04 12:51:04;;;;;;;20.80;3.30;;;12.40;99.90;;;;;;4989605;28;20050;-68
2023/11/04 12:53:33;;;;;;;12.93;2.55;;;12.40;99.90;;;;;;4996650;28;20054;-67
2023/11/04 12:56:00;;;;;;;15.90;3.55;;;12.40;99.90;;;;;;4987021;28;20419;-67